sensor_id;sensor_type;location;lat;lon;timestamp;P1;durP1;ratioP1;P2;durP2;ratioP2
28245;SDS011;15510;52.512;13.300;2023-04-24T00:00:57;4.80;;;3.80;;
28245;SDS011;15510;52.512;13.300;2023-04-24T00:03:26;4.03;;;3.73;;
28245;SDS011;15510;52.512;13.300;2023-04-24T00:05:53;5.30;;;4.10;;
28245;SDS011;15510;52.512;13.300;2023-04-24T00:08:19;5.30;;;3.80;;
28245;SDS011;15510;52.512;13.300;2023-04-24T00:10:45;4.10;;;3.70;;
28245;SDS011;15510;52.512;13.300;2023-04-24T00:13:11;4.10;;;3.70;;
28245;SDS011;15510;52.512;13.300;2023-04-24T00:15:40;5.30;;;4.73;;
28245;SDS011;15510;52.512;13.300;2023-04-24T00:18:06;5.30;;;4.90;;
28245;SDS011;15510;52.512;13.300;2023-04-24T00:20:31;4.20;;;3.80;;
28245;SDS011;15510;52.512;13.300;2023-04-24T00:22:58;4.33;;;3.93;;
28245;SDS011;15510;52.512;13.300;2023-04-24T00:25:24;4.67;;;4.27;;
28245;SDS011;15510;52.512;13.300;2023-04-24T00:27:50;5.07;;;4.30;;
28245;SDS011;15510;52.512;13.300;2023-04-24T00:30:16;4.70;;;3.90;;
28245;SDS011;15510;52.512;13.300;2023-04-24T00:32:42;5.27;;;4.77;;
28245;SDS011;15510;52.512;13.300;2023-04-24T00:35:07;4.30;;;3.90;;
28245;SDS011;15510;52.512;13.300;2023-04-24T00:37:33;4.53;;;4.07;;
28245;SDS011;15510;52.512;13.300;2023-04-24T00:39:59;4.37;;;3.97;;
28245;SDS011;15510;52.512;13.300;2023-04-24T00:42:28;6.00;;;4.13;;
28245;SDS011;15510;52.512;13.300;2023-04-24T00:44:54;4.73;;;4.40;;
28245;SDS011;15510;52.512;13.300;2023-04-24T00:47:21;4.27;;;3.87;;
28245;SDS011;15510;52.512;13.300;2023-04-24T00:49:52;4.03;;;3.63;;
28245;SDS011;15510;52.512;13.300;2023-04-24T00:52:18;4.57;;;4.13;;
28245;SDS011;15510;52.512;13.300;2023-04-24T00:54:44;5.13;;;3.90;;
28245;SDS011;15510;52.512;13.300;2023-04-24T00:57:10;4.90;;;4.40;;
28245;SDS011;15510;52.512;13.300;2023-04-24T00:59:36;4.50;;;4.10;;
28245;SDS011;15510;52.512;13.300;2023-04-24T01:02:02;4.83;;;4.17;;
28245;SDS011;15510;52.512;13.300;2023-04-24T01:04:28;4.20;;;3.90;;
28245;SDS011;15510;52.512;13.300;2023-04-24T01:06:54;4.50;;;4.10;;
28245;SDS011;15510;52.512;13.300;2023-04-24T01:09:21;4.90;;;4.33;;
28245;SDS011;15510;52.512;13.300;2023-04-24T01:11:50;5.13;;;4.10;;
28245;SDS011;15510;52.512;13.300;2023-04-24T01:14:16;4.73;;;4.20;;
28245;SDS011;15510;52.512;13.300;2023-04-24T01:16:44;5.35;;;3.95;;
28245;SDS011;15510;52.512;13.300;2023-04-24T01:19:10;5.07;;;4.20;;
28245;SDS011;15510;52.512;13.300;2023-04-24T01:21:39;4.97;;;3.90;;
28245;SDS011;15510;52.512;13.300;2023-04-24T01:24:07;5.60;;;4.37;;
28245;SDS011;15510;52.512;13.300;2023-04-24T01:26:32;6.20;;;4.73;;
28245;SDS011;15510;52.512;13.300;2023-04-24T01:28:58;3.90;;;3.60;;
28245;SDS011;15510;52.512;13.300;2023-04-24T01:31:24;4.37;;;4.00;;
28245;SDS011;15510;52.512;13.300;2023-04-24T01:33:50;4.13;;;3.83;;
28245;SDS011;15510;52.512;13.300;2023-04-24T01:36:17;5.20;;;4.10;;
28245;SDS011;15510;52.512;13.300;2023-04-24T01:38:44;4.80;;;4.40;;
28245;SDS011;15510;52.512;13.300;2023-04-24T01:41:10;6.33;;;4.13;;
28245;SDS011;15510;52.512;13.300;2023-04-24T01:43:36;4.30;;;4.00;;
28245;SDS011;15510;52.512;13.300;2023-04-24T01:46:01;4.50;;;4.10;;
28245;SDS011;15510;52.512;13.300;2023-04-24T01:48:27;6.40;;;4.50;;
28245;SDS011;15510;52.512;13.300;2023-04-24T01:50:53;4.83;;;4.17;;
28245;SDS011;15510;52.512;13.300;2023-04-24T01:53:19;4.90;;;4.50;;
28245;SDS011;15510;52.512;13.300;2023-04-24T01:55:45;5.10;;;4.70;;
28245;SDS011;15510;52.512;13.300;2023-04-24T01:58:12;4.73;;;4.23;;
28245;SDS011;15510;52.512;13.300;2023-04-24T02:00:38;4.93;;;4.53;;
28245;SDS011;15510;52.512;13.300;2023-04-24T02:03:04;5.00;;;4.60;;
28245;SDS011;15510;52.512;13.300;2023-04-24T02:05:29;4.80;;;4.40;;
28245;SDS011;15510;52.512;13.300;2023-04-24T02:07:55;4.83;;;4.33;;
28245;SDS011;15510;52.512;13.300;2023-04-24T02:10:21;5.50;;;5.00;;
28245;SDS011;15510;52.512;13.300;2023-04-24T02:12:47;5.60;;;5.10;;
28245;SDS011;15510;52.512;13.300;2023-04-24T02:15:16;6.47;;;5.00;;
28245;SDS011;15510;52.512;13.300;2023-04-24T02:17:43;5.60;;;5.10;;
28245;SDS011;15510;52.512;13.300;2023-04-24T02:20:08;6.00;;;4.80;;
28245;SDS011;15510;52.512;13.300;2023-04-24T02:22:34;5.22;;;4.82;;
28245;SDS011;15510;52.512;13.300;2023-04-24T02:25:00;5.40;;;4.83;;
28245;SDS011;15510;52.512;13.300;2023-04-24T02:27:27;5.23;;;4.70;;
28245;SDS011;15510;52.512;13.300;2023-04-24T02:29:52;4.87;;;4.47;;
28245;SDS011;15510;52.512;13.300;2023-04-24T02:32:18;5.10;;;4.60;;
28245;SDS011;15510;52.512;13.300;2023-04-24T02:34:44;6.43;;;4.80;;
28245;SDS011;15510;52.512;13.300;2023-04-24T02:37:11;5.20;;;4.70;;
28245;SDS011;15510;52.512;13.300;2023-04-24T02:39:37;6.00;;;5.40;;
28245;SDS011;15510;52.512;13.300;2023-04-24T02:42:02;7.13;;;4.70;;
28245;SDS011;15510;52.512;13.300;2023-04-24T02:44:29;5.30;;;4.90;;
28245;SDS011;15510;52.512;13.300;2023-04-24T02:46:55;6.20;;;5.20;;
28245;SDS011;15510;52.512;13.300;2023-04-24T02:49:22;4.77;;;4.33;;
28245;SDS011;15510;52.512;13.300;2023-04-24T02:51:47;5.30;;;4.90;;
28245;SDS011;15510;52.512;13.300;2023-04-24T02:54:13;5.47;;;4.63;;
28245;SDS011;15510;52.512;13.300;2023-04-24T02:56:39;4.93;;;4.53;;
28245;SDS011;15510;52.512;13.300;2023-04-24T02:59:06;5.33;;;4.80;;
28245;SDS011;15510;52.512;13.300;2023-04-24T03:01:33;5.53;;;5.00;;
28245;SDS011;15510;52.512;13.300;2023-04-24T03:03:58;5.37;;;4.63;;
28245;SDS011;15510;52.512;13.300;2023-04-24T03:06:24;5.40;;;4.90;;
28245;SDS011;15510;52.512;13.300;2023-04-24T03:08:52;4.60;;;4.20;;
28245;SDS011;15510;52.512;13.300;2023-04-24T03:11:18;5.33;;;4.70;;
28245;SDS011;15510;52.512;13.300;2023-04-24T03:13:44;5.53;;;4.50;;
28245;SDS011;15510;52.512;13.300;2023-04-24T03:16:10;5.17;;;4.67;;
28245;SDS011;15510;52.512;13.300;2023-04-24T03:18:35;4.50;;;4.10;;
28245;SDS011;15510;52.512;13.300;2023-04-24T03:21:02;6.30;;;4.73;;
28245;SDS011;15510;52.512;13.300;2023-04-24T03:23:29;4.30;;;3.90;;
28245;SDS011;15510;52.512;13.300;2023-04-24T03:25:55;5.13;;;4.73;;
28245;SDS011;15510;52.512;13.300;2023-04-24T03:28:21;5.37;;;4.87;;
28245;SDS011;15510;52.512;13.300;2023-04-24T03:30:56;7.50;;;4.63;;
28245;SDS011;15510;52.512;13.300;2023-04-24T03:33:23;4.67;;;4.30;;
28245;SDS011;15510;52.512;13.300;2023-04-24T03:35:59;5.10;;;4.60;;
28245;SDS011;15510;52.512;13.300;2023-04-24T03:38:29;5.83;;;5.00;;
28245;SDS011;15510;52.512;13.300;2023-04-24T03:41:18;4.60;;;4.03;;
28245;SDS011;15510;52.512;13.300;2023-04-24T03:43:54;5.97;;;4.87;;
28245;SDS011;15510;52.512;13.300;2023-04-24T03:46:20;5.77;;;4.30;;
28245;SDS011;15510;52.512;13.300;2023-04-24T03:48:57;4.73;;;4.23;;
28245;SDS011;15510;52.512;13.300;2023-04-24T03:51:28;5.50;;;4.30;;
28245;SDS011;15510;52.512;13.300;2023-04-24T03:54:01;5.30;;;4.80;;
28245;SDS011;15510;52.512;13.300;2023-04-24T03:56:30;5.03;;;4.53;;
28245;SDS011;15510;52.512;13.300;2023-04-24T03:58:55;5.10;;;4.60;;
28245;SDS011;15510;52.512;13.300;2023-04-24T04:01:21;5.23;;;4.83;;
28245;SDS011;15510;52.512;13.300;2023-04-24T04:03:57;4.67;;;4.27;;
28245;SDS011;15510;52.512;13.300;2023-04-24T04:06:25;4.77;;;4.37;;
28245;SDS011;15510;52.512;13.300;2023-04-24T04:08:53;4.50;;;4.10;;
28245;SDS011;15510;52.512;13.300;2023-04-24T04:11:18;5.50;;;5.00;;
28245;SDS011;15510;52.512;13.300;2023-04-24T04:13:45;5.03;;;4.60;;
28245;SDS011;15510;52.512;13.300;2023-04-24T04:16:14;5.93;;;4.80;;
28245;SDS011;15510;52.512;13.300;2023-04-24T04:18:43;4.70;;;4.30;;
28245;SDS011;15510;52.512;13.300;2023-04-24T04:21:09;7.67;;;4.87;;
28245;SDS011;15510;52.512;13.300;2023-04-24T04:23:35;5.30;;;4.63;;
28245;SDS011;15510;52.512;13.300;2023-04-24T04:26:11;5.37;;;4.23;;
28245;SDS011;15510;52.512;13.300;2023-04-24T04:28:58;6.30;;;5.07;;
28245;SDS011;15510;52.512;13.300;2023-04-24T04:31:26;5.00;;;4.47;;
28245;SDS011;15510;52.512;13.300;2023-04-24T04:33:52;5.93;;;5.00;;
28245;SDS011;15510;52.512;13.300;2023-04-24T04:36:18;7.20;;;6.33;;
28245;SDS011;15510;52.512;13.300;2023-04-24T04:38:49;5.67;;;5.17;;
28245;SDS011;15510;52.512;13.300;2023-04-24T04:41:39;5.60;;;5.10;;
28245;SDS011;15510;52.512;13.300;2023-04-24T04:44:06;5.17;;;4.67;;
28245;SDS011;15510;52.512;13.300;2023-04-24T04:46:35;7.03;;;5.10;;
28245;SDS011;15510;52.512;13.300;2023-04-24T04:49:22;5.50;;;5.00;;
28245;SDS011;15510;52.512;13.300;2023-04-24T04:51:50;5.60;;;4.67;;
28245;SDS011;15510;52.512;13.300;2023-04-24T04:54:16;6.37;;;5.00;;
28245;SDS011;15510;52.512;13.300;2023-04-24T04:56:42;5.03;;;4.53;;
28245;SDS011;15510;52.512;13.300;2023-04-24T04:59:08;5.07;;;4.67;;
28245;SDS011;15510;52.512;13.300;2023-04-24T05:01:36;4.93;;;4.43;;
28245;SDS011;15510;52.512;13.300;2023-04-24T05:04:05;6.70;;;4.27;;
28245;SDS011;15510;52.512;13.300;2023-04-24T05:06:31;4.60;;;4.20;;
28245;SDS011;15510;52.512;13.300;2023-04-24T05:08:57;4.77;;;4.20;;
28245;SDS011;15510;52.512;13.300;2023-04-24T05:11:33;4.20;;;3.83;;
28245;SDS011;15510;52.512;13.300;2023-04-24T05:14:00;3.83;;;3.53;;
28245;SDS011;15510;52.512;13.300;2023-04-24T05:16:33;4.73;;;4.20;;
28245;SDS011;15510;52.512;13.300;2023-04-24T05:19:00;4.63;;;4.10;;
28245;SDS011;15510;52.512;13.300;2023-04-24T05:21:30;3.93;;;3.63;;
28245;SDS011;15510;52.512;13.300;2023-04-24T05:23:56;4.93;;;4.53;;
28245;SDS011;15510;52.512;13.300;2023-04-24T05:26:36;4.50;;;4.10;;
28245;SDS011;15510;52.512;13.300;2023-04-24T05:29:03;4.20;;;3.80;;
28245;SDS011;15510;52.512;13.300;2023-04-24T05:31:29;3.77;;;3.47;;
28245;SDS011;15510;52.512;13.300;2023-04-24T05:33:55;3.97;;;3.27;;
28245;SDS011;15510;52.512;13.300;2023-04-24T05:36:22;3.23;;;2.93;;
28245;SDS011;15510;52.512;13.300;2023-04-24T05:38:48;4.50;;;3.23;;
28245;SDS011;15510;52.512;13.300;2023-04-24T05:41:14;9.70;;;3.63;;
28245;SDS011;15510;52.512;13.300;2023-04-24T05:43:40;3.53;;;3.13;;
28245;SDS011;15510;52.512;13.300;2023-04-24T05:46:06;2.97;;;2.77;;
28245;SDS011;15510;52.512;13.300;2023-04-24T05:48:32;3.50;;;2.80;;
28245;SDS011;15510;52.512;13.300;2023-04-24T05:51:00;2.97;;;2.77;;
28245;SDS011;15510;52.512;13.300;2023-04-24T05:53:26;4.53;;;2.83;;
28245;SDS011;15510;52.512;13.300;2023-04-24T05:55:52;5.37;;;2.70;;
28245;SDS011;15510;52.512;13.300;2023-04-24T05:58:18;6.43;;;2.67;;
28245;SDS011;15510;52.512;13.300;2023-04-24T06:00:46;2.27;;;2.10;;
28245;SDS011;15510;52.512;13.300;2023-04-24T06:03:12;2.33;;;1.93;;
28245;SDS011;15510;52.512;13.300;2023-04-24T06:05:38;2.53;;;2.03;;
28245;SDS011;15510;52.512;13.300;2023-04-24T06:08:03;4.80;;;2.20;;
28245;SDS011;15510;52.512;13.300;2023-04-24T06:10:34;6.47;;;2.03;;
28245;SDS011;15510;52.512;13.300;2023-04-24T06:13:00;4.77;;;2.07;;
28245;SDS011;15510;52.512;13.300;2023-04-24T06:15:28;2.00;;;1.67;;
28245;SDS011;15510;52.512;13.300;2023-04-24T06:17:58;2.67;;;2.20;;
28245;SDS011;15510;52.512;13.300;2023-04-24T06:20:25;1.43;;;1.37;;
28245;SDS011;15510;52.512;13.300;2023-04-24T06:22:50;1.73;;;1.50;;
28245;SDS011;15510;52.512;13.300;2023-04-24T06:25:16;3.87;;;1.53;;
28245;SDS011;15510;52.512;13.300;2023-04-24T06:27:42;2.67;;;1.30;;
28245;SDS011;15510;52.512;13.300;2023-04-24T06:30:08;2.35;;;1.23;;
28245;SDS011;15510;52.512;13.300;2023-04-24T06:32:34;5.47;;;1.50;;
28245;SDS011;15510;52.512;13.300;2023-04-24T06:35:00;1.43;;;0.97;;
28245;SDS011;15510;52.512;13.300;2023-04-24T06:37:26;1.20;;;1.10;;
28245;SDS011;15510;52.512;13.300;2023-04-24T06:39:52;3.50;;;1.00;;
28245;SDS011;15510;52.512;13.300;2023-04-24T06:42:18;3.45;;;1.30;;
28245;SDS011;15510;52.512;13.300;2023-04-24T06:44:47;1.23;;;0.93;;
28245;SDS011;15510;52.512;13.300;2023-04-24T06:47:13;0.73;;;0.73;;
28245;SDS011;15510;52.512;13.300;2023-04-24T06:49:39;1.50;;;0.80;;
28245;SDS011;15510;52.512;13.300;2023-04-24T06:52:05;1.10;;;0.90;;
28245;SDS011;15510;52.512;13.300;2023-04-24T06:54:31;1.40;;;0.95;;
28245;SDS011;15510;52.512;13.300;2023-04-24T06:56:58;1.45;;;1.15;;
28245;SDS011;15510;52.512;13.300;2023-04-24T06:59:25;5.05;;;1.05;;
28245;SDS011;15510;52.512;13.300;2023-04-24T07:01:52;2.78;;;0.80;;
28245;SDS011;15510;52.512;13.300;2023-04-24T07:04:18;2.72;;;0.88;;
28245;SDS011;15510;52.512;13.300;2023-04-24T07:06:47;0.77;;;0.68;;
28245;SDS011;15510;52.512;13.300;2023-04-24T07:09:17;0.80;;;0.57;;
28245;SDS011;15510;52.512;13.300;2023-04-24T07:11:44;2.05;;;0.80;;
28245;SDS011;15510;52.512;13.300;2023-04-24T07:14:10;2.22;;;0.70;;
28245;SDS011;15510;52.512;13.300;2023-04-24T07:16:36;1.00;;;0.63;;
28245;SDS011;15510;52.512;13.300;2023-04-24T07:19:02;0.55;;;0.50;;
28245;SDS011;15510;52.512;13.300;2023-04-24T07:21:27;1.88;;;0.55;;
28245;SDS011;15510;52.512;13.300;2023-04-24T07:23:53;0.60;;;0.60;;
28245;SDS011;15510;52.512;13.300;2023-04-24T07:26:19;1.10;;;0.43;;
28245;SDS011;15510;52.512;13.300;2023-04-24T07:28:45;4.43;;;0.75;;
28245;SDS011;15510;52.512;13.300;2023-04-24T07:31:11;1.42;;;0.85;;
28245;SDS011;15510;52.512;13.300;2023-04-24T07:33:37;0.90;;;0.40;;
28245;SDS011;15510;52.512;13.300;2023-04-24T07:36:03;1.20;;;0.40;;
28245;SDS011;15510;52.512;13.300;2023-04-24T07:38:30;0.55;;;0.47;;
28245;SDS011;15510;52.512;13.300;2023-04-24T07:40:56;2.03;;;0.70;;
28245;SDS011;15510;52.512;13.300;2023-04-24T07:43:22;1.70;;;0.65;;
28245;SDS011;15510;52.512;13.300;2023-04-24T07:45:49;2.70;;;0.65;;
28245;SDS011;15510;52.512;13.300;2023-04-24T07:48:15;2.22;;;0.38;;
28245;SDS011;15510;52.512;13.300;2023-04-24T07:50:43;1.25;;;0.40;;
28245;SDS011;15510;52.512;13.300;2023-04-24T07:53:11;4.05;;;0.40;;
28245;SDS011;15510;52.512;13.300;2023-04-24T07:55:37;0.60;;;0.50;;
28245;SDS011;15510;52.512;13.300;2023-04-24T07:58:03;3.60;;;0.60;;
28245;SDS011;15510;52.512;13.300;2023-04-24T08:00:29;1.45;;;0.60;;
28245;SDS011;15510;52.512;13.300;2023-04-24T08:02:55;2.03;;;0.40;;
28245;SDS011;15510;52.512;13.300;2023-04-24T08:05:20;2.05;;;0.70;;
28245;SDS011;15510;52.512;13.300;2023-04-24T08:07:46;2.65;;;0.68;;
28245;SDS011;15510;52.512;13.300;2023-04-24T08:10:14;0.38;;;0.30;;
28245;SDS011;15510;52.512;13.300;2023-04-24T08:12:40;0.30;;;0.20;;
28245;SDS011;15510;52.512;13.300;2023-04-24T08:15:06;1.35;;;0.60;;
28245;SDS011;15510;52.512;13.300;2023-04-24T08:17:33;8.38;;;0.80;;
28245;SDS011;15510;52.512;13.300;2023-04-24T08:20:00;5.47;;;1.05;;
28245;SDS011;15510;52.512;13.300;2023-04-24T08:22:27;0.50;;;0.40;;
28245;SDS011;15510;52.512;13.300;2023-04-24T08:24:53;2.17;;;0.40;;
28245;SDS011;15510;52.512;13.300;2023-04-24T08:27:21;12.93;;;1.40;;
28245;SDS011;15510;52.512;13.300;2023-04-24T08:29:46;6.10;;;0.98;;
28245;SDS011;15510;52.512;13.300;2023-04-24T08:32:12;0.45;;;0.32;;
28245;SDS011;15510;52.512;13.300;2023-04-24T08:34:38;2.00;;;0.35;;
28245;SDS011;15510;52.512;13.300;2023-04-24T08:37:03;4.07;;;0.68;;
28245;SDS011;15510;52.512;13.300;2023-04-24T08:39:29;0.70;;;0.30;;
28245;SDS011;15510;52.512;13.300;2023-04-24T08:41:55;1.45;;;0.50;;
28245;SDS011;15510;52.512;13.300;2023-04-24T08:44:21;1.73;;;0.50;;
28245;SDS011;15510;52.512;13.300;2023-04-24T08:46:47;3.35;;;0.38;;
28245;SDS011;15510;52.512;13.300;2023-04-24T08:49:14;3.05;;;0.55;;
28245;SDS011;15510;52.512;13.300;2023-04-24T08:51:41;0.28;;;0.28;;
28245;SDS011;15510;52.512;13.300;2023-04-24T08:54:07;1.90;;;0.40;;
28245;SDS011;15510;52.512;13.300;2023-04-24T08:56:34;2.53;;;0.70;;
28245;SDS011;15510;52.512;13.300;2023-04-24T08:59:05;2.38;;;0.70;;
28245;SDS011;15510;52.512;13.300;2023-04-24T09:01:31;4.70;;;0.45;;
28245;SDS011;15510;52.512;13.300;2023-04-24T09:04:02;0.57;;;0.40;;
28245;SDS011;15510;52.512;13.300;2023-04-24T09:06:29;3.67;;;0.60;;
28245;SDS011;15510;52.512;13.300;2023-04-24T09:08:57;0.30;;;0.22;;
28245;SDS011;15510;52.512;13.300;2023-04-24T09:11:29;2.42;;;0.52;;
28245;SDS011;15510;52.512;13.300;2023-04-24T09:13:56;0.60;;;0.30;;
28245;SDS011;15510;52.512;13.300;2023-04-24T09:16:23;0.93;;;0.35;;
28245;SDS011;15510;52.512;13.300;2023-04-24T09:18:50;0.98;;;0.40;;
28245;SDS011;15510;52.512;13.300;2023-04-24T09:21:17;2.78;;;0.40;;
28245;SDS011;15510;52.512;13.300;2023-04-24T09:23:45;1.48;;;0.60;;
28245;SDS011;15510;52.512;13.300;2023-04-24T09:26:11;2.10;;;1.15;;
28245;SDS011;15510;52.512;13.300;2023-04-24T09:28:40;2.33;;;0.60;;
28245;SDS011;15510;52.512;13.300;2023-04-24T09:31:12;2.05;;;0.52;;
28245;SDS011;15510;52.512;13.300;2023-04-24T09:33:54;0.75;;;0.60;;
28245;SDS011;15510;52.512;13.300;2023-04-24T09:36:31;2.35;;;0.63;;
28245;SDS011;15510;52.512;13.300;2023-04-24T09:39:10;2.67;;;0.45;;
28245;SDS011;15510;52.512;13.300;2023-04-24T09:41:44;2.28;;;0.40;;
28245;SDS011;15510;52.512;13.300;2023-04-24T09:46:41;1.73;;;0.45;;
28245;SDS011;15510;52.512;13.300;2023-04-24T09:49:09;7.35;;;3.35;;
28245;SDS011;15510;52.512;13.300;2023-04-24T09:51:38;0.60;;;0.40;;
28245;SDS011;15510;52.512;13.300;2023-04-24T09:54:04;2.50;;;0.63;;
28245;SDS011;15510;52.512;13.300;2023-04-24T09:56:35;2.92;;;0.90;;
28245;SDS011;15510;52.512;13.300;2023-04-24T09:59:07;2.75;;;1.15;;
28245;SDS011;15510;52.512;13.300;2023-04-24T10:01:33;1.73;;;0.80;;
28245;SDS011;15510;52.512;13.300;2023-04-24T10:04:00;0.77;;;0.40;;
28245;SDS011;15510;52.512;13.300;2023-04-24T10:06:36;3.45;;;0.70;;
28245;SDS011;15510;52.512;13.300;2023-04-24T10:09:01;2.60;;;0.70;;
28245;SDS011;15510;52.512;13.300;2023-04-24T10:11:28;2.22;;;0.80;;
28245;SDS011;15510;52.512;13.300;2023-04-24T10:13:55;0.70;;;0.60;;
28245;SDS011;15510;52.512;13.300;2023-04-24T10:16:22;2.00;;;0.60;;
28245;SDS011;15510;52.512;13.300;2023-04-24T10:18:48;0.93;;;0.50;;
28245;SDS011;15510;52.512;13.300;2023-04-24T10:21:15;2.40;;;0.90;;
28245;SDS011;15510;52.512;13.300;2023-04-24T10:23:42;3.33;;;1.67;;
28245;SDS011;15510;52.512;13.300;2023-04-24T10:26:12;3.40;;;1.10;;
28245;SDS011;15510;52.512;13.300;2023-04-24T10:28:45;4.53;;;1.10;;
28245;SDS011;15510;52.512;13.300;2023-04-24T10:31:12;3.13;;;1.45;;
28245;SDS011;15510;52.512;13.300;2023-04-24T10:33:40;3.03;;;1.05;;
28245;SDS011;15510;52.512;13.300;2023-04-24T10:36:07;3.70;;;0.85;;
28245;SDS011;15510;52.512;13.300;2023-04-24T10:38:38;1.95;;;0.77;;
28245;SDS011;15510;52.512;13.300;2023-04-24T10:41:07;0.95;;;0.55;;
28245;SDS011;15510;52.512;13.300;2023-04-24T10:43:47;1.73;;;0.77;;
28245;SDS011;15510;52.512;13.300;2023-04-24T10:46:19;1.02;;;0.88;;
28245;SDS011;15510;52.512;13.300;2023-04-24T10:48:53;2.05;;;0.70;;
28245;SDS011;15510;52.512;13.300;2023-04-24T10:51:21;1.63;;;1.00;;
28245;SDS011;15510;52.512;13.300;2023-04-24T10:53:49;2.35;;;0.52;;
28245;SDS011;15510;52.512;13.300;2023-04-24T10:56:16;1.55;;;0.57;;
28245;SDS011;15510;52.512;13.300;2023-04-24T10:58:42;1.58;;;0.60;;
28245;SDS011;15510;52.512;13.300;2023-04-24T11:01:30;2.00;;;0.60;;
28245;SDS011;15510;52.512;13.300;2023-04-24T11:04:00;2.60;;;1.00;;
28245;SDS011;15510;52.512;13.300;2023-04-24T11:06:28;2.20;;;0.68;;
28245;SDS011;15510;52.512;13.300;2023-04-24T11:09:02;1.33;;;0.88;;
28245;SDS011;15510;52.512;13.300;2023-04-24T11:11:30;2.15;;;0.90;;
28245;SDS011;15510;52.512;13.300;2023-04-24T11:21:44;2.28;;;0.50;;
28245;SDS011;15510;52.512;13.300;2023-04-24T11:24:22;2.80;;;0.73;;
28245;SDS011;15510;52.512;13.300;2023-04-24T11:26:51;0.73;;;0.30;;
28245;SDS011;15510;52.512;13.300;2023-04-24T11:29:20;6.18;;;1.13;;
28245;SDS011;15510;52.512;13.300;2023-04-24T11:31:46;5.05;;;1.00;;
28245;SDS011;15510;52.512;13.300;2023-04-24T11:34:17;4.38;;;1.00;;
28245;SDS011;15510;52.512;13.300;2023-04-24T11:36:44;5.88;;;1.13;;
28245;SDS011;15510;52.512;13.300;2023-04-24T11:39:10;1.38;;;0.90;;
28245;SDS011;15510;52.512;13.300;2023-04-24T11:41:37;4.55;;;1.85;;
28245;SDS011;15510;52.512;13.300;2023-04-24T11:44:03;8.35;;;1.55;;
28245;SDS011;15510;52.512;13.300;2023-04-24T11:46:31;1.70;;;0.90;;
28245;SDS011;15510;52.512;13.300;2023-04-24T11:48:57;1.75;;;0.80;;
28245;SDS011;15510;52.512;13.300;2023-04-24T11:51:24;2.20;;;0.80;;
28245;SDS011;15510;52.512;13.300;2023-04-24T11:53:52;1.40;;;0.70;;
28245;SDS011;15510;52.512;13.300;2023-04-24T11:56:19;3.17;;;1.13;;
28245;SDS011;15510;52.512;13.300;2023-04-24T11:58:48;1.98;;;0.50;;
28245;SDS011;15510;52.512;13.300;2023-04-24T12:01:16;1.33;;;0.60;;
28245;SDS011;15510;52.512;13.300;2023-04-24T12:03:46;3.13;;;0.93;;
28245;SDS011;15510;52.512;13.300;2023-04-24T12:06:24;0.88;;;0.30;;
28245;SDS011;15510;52.512;13.300;2023-04-24T12:08:50;2.25;;;0.43;;
28245;SDS011;15510;52.512;13.300;2023-04-24T12:11:17;1.70;;;0.60;;
28245;SDS011;15510;52.512;13.300;2023-04-24T12:13:44;1.38;;;0.50;;
28245;SDS011;15510;52.512;13.300;2023-04-24T12:16:11;1.95;;;0.60;;
28245;SDS011;15510;52.512;13.300;2023-04-24T12:18:41;0.20;;;0.20;;
28245;SDS011;15510;52.512;13.300;2023-04-24T12:21:18;1.95;;;0.40;;
28245;SDS011;15510;52.512;13.300;2023-04-24T12:23:45;3.58;;;0.40;;
28245;SDS011;15510;52.512;13.300;2023-04-24T12:26:18;3.50;;;0.55;;
28245;SDS011;15510;52.512;13.300;2023-04-24T12:28:46;1.67;;;0.25;;
28245;SDS011;15510;52.512;13.300;2023-04-24T12:31:14;1.55;;;0.38;;
28245;SDS011;15510;52.512;13.300;2023-04-24T12:33:45;2.13;;;0.70;;
28245;SDS011;15510;52.512;13.300;2023-04-24T12:36:11;1.08;;;0.38;;
28245;SDS011;15510;52.512;13.300;2023-04-24T12:38:37;0.82;;;0.25;;
28245;SDS011;15510;52.512;13.300;2023-04-24T12:41:11;2.38;;;0.40;;
28245;SDS011;15510;52.512;13.300;2023-04-24T12:43:38;1.83;;;0.30;;
28245;SDS011;15510;52.512;13.300;2023-04-24T12:46:15;1.10;;;0.45;;
28245;SDS011;15510;52.512;13.300;2023-04-24T12:48:41;0.95;;;0.38;;
28245;SDS011;15510;52.512;13.300;2023-04-24T12:51:06;4.43;;;0.52;;
28245;SDS011;15510;52.512;13.300;2023-04-24T12:53:32;1.10;;;0.30;;
28245;SDS011;15510;52.512;13.300;2023-04-24T12:55:58;3.30;;;0.90;;
28245;SDS011;15510;52.512;13.300;2023-04-24T12:58:23;3.00;;;0.43;;
28245;SDS011;15510;52.512;13.300;2023-04-24T13:00:49;2.92;;;0.47;;
28245;SDS011;15510;52.512;13.300;2023-04-24T13:03:16;3.25;;;1.00;;
28245;SDS011;15510;52.512;13.300;2023-04-24T13:05:42;2.53;;;1.70;;
28245;SDS011;15510;52.512;13.300;2023-04-24T13:08:08;0.90;;;0.40;;
28245;SDS011;15510;52.512;13.300;2023-04-24T13:10:34;1.40;;;1.10;;
28245;SDS011;15510;52.512;13.300;2023-04-24T13:13:00;2.38;;;0.80;;
28245;SDS011;15510;52.512;13.300;2023-04-24T13:15:25;3.08;;;0.93;;
28245;SDS011;15510;52.512;13.300;2023-04-24T13:17:51;0.98;;;0.60;;
28245;SDS011;15510;52.512;13.300;2023-04-24T13:20:17;1.30;;;0.43;;
28245;SDS011;15510;52.512;13.300;2023-04-24T13:22:43;1.98;;;0.57;;
28245;SDS011;15510;52.512;13.300;2023-04-24T13:25:09;2.00;;;1.25;;
28245;SDS011;15510;52.512;13.300;2023-04-24T13:27:35;0.50;;;0.30;;
28245;SDS011;15510;52.512;13.300;2023-04-24T13:30:03;3.63;;;1.80;;
28245;SDS011;15510;52.512;13.300;2023-04-24T13:32:29;2.63;;;2.30;;
28245;SDS011;15510;52.512;13.300;2023-04-24T13:34:56;3.45;;;1.50;;
28245;SDS011;15510;52.512;13.300;2023-04-24T13:37:21;1.17;;;0.60;;
28245;SDS011;15510;52.512;13.300;2023-04-24T13:39:47;3.78;;;0.40;;
28245;SDS011;15510;52.512;13.300;2023-04-24T13:42:13;3.80;;;0.50;;
28245;SDS011;15510;52.512;13.300;2023-04-24T13:44:39;1.75;;;0.47;;
28245;SDS011;15510;52.512;13.300;2023-04-24T13:47:05;1.20;;;0.82;;
28245;SDS011;15510;52.512;13.300;2023-04-24T13:49:31;2.25;;;0.60;;
28245;SDS011;15510;52.512;13.300;2023-04-24T13:51:57;1.58;;;0.50;;
28245;SDS011;15510;52.512;13.300;2023-04-24T13:54:22;2.22;;;0.90;;
28245;SDS011;15510;52.512;13.300;2023-04-24T13:56:50;1.98;;;0.50;;
28245;SDS011;15510;52.512;13.300;2023-04-24T13:59:17;3.25;;;0.70;;
28245;SDS011;15510;52.512;13.300;2023-04-24T14:01:42;4.55;;;0.63;;
28245;SDS011;15510;52.512;13.300;2023-04-24T14:04:10;1.55;;;0.50;;
28245;SDS011;15510;52.512;13.300;2023-04-24T14:06:36;0.40;;;0.35;;
28245;SDS011;15510;52.512;13.300;2023-04-24T14:09:01;1.95;;;0.50;;
28245;SDS011;15510;52.512;13.300;2023-04-24T14:11:27;2.00;;;0.50;;
28245;SDS011;15510;52.512;13.300;2023-04-24T14:13:54;1.92;;;1.27;;
28245;SDS011;15510;52.512;13.300;2023-04-24T14:16:23;2.08;;;1.10;;
28245;SDS011;15510;52.512;13.300;2023-04-24T14:18:48;1.25;;;0.90;;
28245;SDS011;15510;52.512;13.300;2023-04-24T14:21:15;0.60;;;0.60;;
28245;SDS011;15510;52.512;13.300;2023-04-24T14:23:41;1.42;;;0.55;;
28245;SDS011;15510;52.512;13.300;2023-04-24T14:26:06;2.08;;;0.57;;
28245;SDS011;15510;52.512;13.300;2023-04-24T14:28:32;0.43;;;0.40;;
28245;SDS011;15510;52.512;13.300;2023-04-24T14:30:58;0.93;;;0.60;;
28245;SDS011;15510;52.512;13.300;2023-04-24T14:33:24;0.93;;;0.55;;
28245;SDS011;15510;52.512;13.300;2023-04-24T14:35:49;1.35;;;0.70;;
28245;SDS011;15510;52.512;13.300;2023-04-24T14:38:15;1.48;;;0.40;;
28245;SDS011;15510;52.512;13.300;2023-04-24T14:40:41;2.05;;;0.40;;
28245;SDS011;15510;52.512;13.300;2023-04-24T14:43:06;1.38;;;0.50;;
28245;SDS011;15510;52.512;13.300;2023-04-24T14:45:32;2.70;;;0.40;;